Time;durP1;ratioP1;P1;durP2;ratioP2;P2;SDS_P1;SDS_P2;PMS_P1;PMS_P2;Temp;Humidity;BMP_temperature;BMP_pressure;BME280_temperature;BME280_humidity;BME280_pressure;Samples;Min_cycle;Max_cycle;Signal;HPM_P1;HPM_P2
2023/01/24 00:04:50;;;;;;;47.17;26.48;;;;;;;20.99;36.69;101101.91;21086418;28;20059;-65
2023/01/24 00:14:53;;;;;;;69.05;32.40;;;;;;;20.97;36.58;101123.59;21085490;28;20090;-64
2023/01/24 00:24:57;;;;;;;52.78;25.45;;;;;;;20.96;36.70;101155.31;21076888;28;20062;-65
2023/01/24 00:35:01;;;;;;;46.88;23.63;;;;;;;20.78;36.80;101143.59;21047102;28;20036;-65
2023/01/24 00:45:03;;;;;;;53.53;26.67;;;;;;;21.00;36.48;101200.94;21062007;28;20376;-65
2023/01/24 00:55:04;;;;;;;45.50;21.98;;;;;;;20.97;36.75;101216.22;21028016;28;20495;-64
2023/01/24 01:05:06;;;;;;;40.97;20.30;;;;;;;20.91;37.07;101235.97;21034101;28;20553;-64
2023/01/24 01:15:08;;;;;;;36.92;19.48;;;;;;;20.90;37.07;101234.31;21038017;28;20040;-64
2023/01/24 01:25:10;;;;;;;36.10;19.13;;;;;;;21.19;36.97;101285.56;21060654;28;20051;-64
2023/01/24 01:35:11;;;;;;;32.65;17.67;;;;;;;21.24;37.24;101305.06;21047678;28;20487;-64
2023/01/24 01:45:34;;;;;;;34.83;17.75;;;;;;;21.28;37.13;101331.25;21006333;28;20176;-64
2023/01/24 01:55:39;;;;;;;34.97;17.75;;;;;;;21.41;37.38;101351.34;20994647;28;20063;-63
2023/01/24 02:05:42;;;;;;;26.83;15.73;;;;;;;21.47;37.59;101378.09;20993752;28;20433;-64
2023/01/24 02:16:03;;;;;;;24.98;14.45;;;;;;;21.53;37.60;101388.13;20992962;28;20106;-64
2023/01/24 02:26:12;;;;;;;27.33;13.77;;;;;;;21.42;37.82;101381.69;21009811;28;20036;-64
2023/01/24 02:36:33;;;;;;;24.02;13.20;;;;;;;21.63;37.61;101438.31;21036620;28;20156;-63
2023/01/24 02:46:37;;;;;;;20.38;12.10;;;;;;;21.74;37.50;101472.59;21076000;28;20044;-64
2023/01/24 03:06:58;;;;;;;31.30;10.93;;;;;;;21.81;37.60;101496.31;21068652;28;20487;-66
2023/01/24 03:48:02;;;;;;;22.25;8.77;;;;;;;21.87;36.45;101560.41;21079461;28;20032;-65
2023/01/24 03:58:04;;;;;;;18.10;9.00;;;;;;;21.88;36.32;101573.22;21073672;28;20044;-65
2023/01/24 04:08:08;;;;;;;15.32;7.10;;;;;;;21.88;36.60;101589.94;21081369;28;20047;-64
2023/01/24 04:18:11;;;;;;;16.27;7.45;;;;;;;21.86;36.50;101604.16;21059317;28;20100;-64
2023/01/24 04:28:15;;;;;;;19.90;7.70;;;;;;;21.87;37.17;101594.66;21069836;28;20039;-64
2023/01/24 04:38:16;;;;;;;16.33;7.75;;;;;;;21.86;38.04;101589.38;21066987;28;20028;-64
2023/01/24 04:48:18;;;;;;;13.23;6.93;;;;;;;21.86;38.24;101609.72;21078553;28;20044;-64
2023/01/24 04:58:19;;;;;;;16.88;7.22;;;;;;;21.80;38.48;101630.28;21076161;28;20383;-62
2023/01/24 05:08:21;;;;;;;15.60;7.28;;;;;;;21.79;38.92;101635.00;21077793;28;20044;-63
2023/01/24 05:18:22;;;;;;;23.08;8.00;;;;;;;21.76;38.87;101637.50;21076118;28;20376;-63
2023/01/24 05:28:26;;;;;;;11.40;6.68;;;;;;;21.82;38.69;101659.56;21078245;28;20048;-62
2023/01/24 05:38:28;;;;;;;9.02;6.00;;;;;;;21.83;38.58;101666.81;21071708;28;20036;-63
2023/01/24 05:48:29;;;;;;;10.02;6.20;;;;;;;21.81;38.28;101648.69;21075480;28;20094;-64
2023/01/24 05:58:34;;;;;;;11.07;5.30;;;;;;;21.81;38.00;101666.25;21074682;28;20044;-63
2023/01/24 06:08:36;;;;;;;10.90;5.25;;;;;;;21.77;37.98;101656.75;21073988;28;20055;-63
2023/01/24 06:18:38;;;;;;;7.70;4.85;;;;;;;21.76;38.18;101663.44;21067937;28;20120;-63
2023/01/24 06:28:39;;;;;;;9.00;5.55;;;;;;;21.73;37.76;101672.31;21071263;28;20036;-63
2023/01/24 06:38:44;;;;;;;7.40;4.43;;;;;;;21.72;37.79;101678.19;21068771;28;20604;-64
2023/01/24 06:48:45;;;;;;;5.65;4.05;;;;;;;21.66;37.67;101688.41;21047511;28;20181;-63
2023/01/24 06:58:47;;;;;;;4.68;4.03;;;;;;;21.64;37.38;101707.34;21071306;28;20048;-62
2023/01/24 07:08:48;;;;;;;6.90;4.25;;;;;;;21.61;37.19;101719.03;21082244;28;20044;-63
2023/01/24 07:18:50;;;;;;;4.30;3.42;;;;;;;21.57;36.99;101706.72;21087643;28;20051;-63
2023/01/24 07:28:51;;;;;;;5.25;3.38;;;;;;;21.52;36.74;101701.13;21086092;28;20426;-63
2023/01/24 07:38:54;;;;;;;4.88;3.55;;;;;;;21.47;37.12;101728.94;21085372;28;20043;-63
2023/01/24 07:48:55;;;;;;;4.55;3.40;;;;;;;21.46;36.75;101719.75;21085399;28;20044;-63
2023/01/24 07:59:00;;;;;;;3.65;3.00;;;;;;;21.43;36.73;101750.06;21044201;28;20040;-63
2023/01/24 08:09:07;;;;;;;4.80;3.50;;;;;;;21.39;36.48;101754.47;21080737;28;20048;-63
2023/01/24 08:19:08;;;;;;;3.83;3.22;;;;;;;21.31;36.27;101747.47;21082861;28;20048;-63
2023/01/24 08:29:10;;;;;;;3.72;3.22;;;;;;;21.31;36.25;101767.78;21076838;28;20044;-63
2023/01/24 08:39:11;;;;;;;4.10;2.78;;;;;;;21.27;36.18;101769.38;21080022;28;20056;-63
2023/01/24 08:49:15;;;;;;;3.50;3.10;;;;;;;21.23;36.04;101790.50;21080242;28;20051;-64
2023/01/24 08:59:17;;;;;;;3.30;2.67;;;;;;;21.20;36.06;101765.97;21080895;28;20048;-63
2023/01/24 09:09:19;;;;;;;4.43;2.97;;;;;;;20.97;36.23;101761.53;21078383;28;20036;-64
2023/01/24 09:19:23;;;;;;;4.20;2.78;;;;;;;21.14;36.07;101814.34;21078034;28;20449;-63
2023/01/24 09:29:30;;;;;;;3.10;2.80;;;;;;;20.92;35.67;101766.22;21078121;28;20552;-65
2023/01/24 09:39:31;;;;;;;4.53;3.10;;;;;;;21.06;35.90;101803.66;21075291;28;20048;-64
2023/01/24 09:50:03;;;;;;;2.75;2.55;;;;;;;20.97;36.02;101822.75;21075218;28;20502;-63
2023/01/24 10:00:26;;;;;;;3.30;2.58;;;;;;;20.97;35.84;101813.56;21074484;28;20036;-63
2023/01/24 10:11:14;;;;;;;3.97;3.05;;;;;;;20.91;36.02;101843.28;21075584;28;20437;-63
2023/01/24 10:21:34;;;;;;;3.00;2.70;;;;;;;20.94;35.67;101841.94;21073945;28;20040;-63
2023/01/24 10:31:41;;;;;;;3.03;2.65;;;;;;;20.86;35.57;101845.16;21073364;28;20552;-64
2023/01/24 10:41:46;;;;;;;2.90;2.60;;;;;;;20.92;35.41;101866.38;21081636;28;20105;-63
2023/01/24 10:52:10;;;;;;;2.83;2.30;;;;;;;20.86;35.39;101884.97;21089137;28;20051;-63
2023/01/24 11:02:21;;;;;;;2.10;1.90;;;;;;;20.93;35.76;101884.75;21089405;28;20097;-62
2023/01/24 11:12:23;;;;;;;3.03;2.13;;;;;;;20.96;35.58;101884.25;21088274;28;20487;-63
2023/01/24 11:22:33;;;;;;;3.70;2.60;;;;;;;20.92;35.56;101891.41;21087293;28;20032;-62
2023/01/24 11:33:07;;;;;;;2.70;2.50;;;;;;;20.94;35.45;101892.03;21086328;28;20532;-63
2023/01/24 11:43:49;;;;;;;3.13;2.83;;;;;;;20.93;35.45;101912.56;21080515;28;20094;-63
2023/01/24 11:53:56;;;;;;;2.63;2.35;;;;;;;20.95;35.42;101930.72;21082084;28;20040;-64
2023/01/24 12:04:36;;;;;;;2.40;2.20;;;;;;;20.90;35.81;101946.50;21033607;28;20491;-63
2023/01/24 12:14:49;;;;;;;3.10;2.65;;;;;;;20.94;35.44;101962.41;21082677;28;20395;-64
2023/01/24 12:25:01;;;;;;;3.33;2.78;;;;;;;20.88;35.37;101965.38;21077787;28;20102;-64
2023/01/24 12:35:36;;;;;;;2.78;2.58;;;;;;;20.87;36.09;101986.78;21074143;28;20048;-64
2023/01/24 12:45:48;;;;;;;3.00;2.70;;;;;;;20.72;36.66;101990.19;21066910;28;20048;-64
2023/01/24 12:56:24;;;;;;;7.63;3.30;;;;;;;20.94;36.75;102020.00;21075985;28;20499;-64
2023/01/24 13:06:39;;;;;;;3.88;2.88;;;;;;;20.93;36.36;102021.09;21075197;28;20044;-64
2023/01/24 13:17:02;;;;;;;5.90;3.00;;;;;;;20.92;36.21;102016.63;21067563;28;20097;-63
2023/01/24 13:27:32;;;;;;;6.85;3.47;;;;;;;20.85;36.11;102049.34;21075643;28;20090;-65
2023/01/24 13:38:03;;;;;;;6.10;3.47;;;;;;;20.88;36.43;102071.09;21170943;27;20401;-63
2023/01/24 13:48:39;;;;;;;6.53;3.50;;;;;;;20.86;36.40;102078.88;21210041;28;20120;-64
2023/01/24 13:58:50;;;;;;;4.85;3.40;;;;;;;20.88;36.34;102094.19;21142889;28;20043;-64
2023/01/24 14:09:17;;;;;;;4.03;3.55;;;;;;;20.88;36.06;102105.31;21131272;28;20106;-64
2023/01/24 14:19:29;;;;;;;4.43;3.50;;;;;;;20.23;36.08;101998.22;21127882;28;20094;-64
2023/01/24 14:29:41;;;;;;;4.13;3.72;;;;;;;20.67;36.04;102098.59;21091882;28;20052;-64
2023/01/24 14:39:43;;;;;;;4.78;3.60;;;;;;;20.76;35.76;102107.34;21146820;28;20051;-63
2023/01/24 14:49:55;;;;;;;5.15;3.75;;;;;;;20.78;35.89;102132.97;21080354;28;20093;-63
2023/01/24 15:00:11;;;;;;;5.25;3.55;;;;;;;20.77;35.66;102129.34;21096453;28;20048;-64
2023/01/24 15:10:13;;;;;;;5.22;4.57;;;;;;;20.77;35.19;102132.13;21083861;28;20051;-63
2023/01/24 15:20:19;;;;;;;6.75;3.63;;;;;;;20.77;35.77;102136.84;21033345;28;20118;-64
2023/01/24 15:30:25;;;;;;;6.53;3.78;;;;;;;20.80;36.66;102126.06;21084082;28;20462;-63
2023/01/24 15:40:27;;;;;;;7.55;4.32;;;;;;;20.85;36.50;102121.66;21040433;28;20036;-63
2023/01/24 16:00:59;;;;;;;7.60;3.20;;;;;;;20.87;35.75;102114.78;20997919;28;20032;-64
2023/01/24 16:11:03;;;;;;;4.68;3.10;;;;;;;20.90;35.57;102110.66;20997842;28;20436;-65
2023/01/24 16:21:09;;;;;;;5.47;3.65;;;;;;;20.73;35.16;102055.84;20997612;28;20066;-64
2023/01/24 16:31:11;;;;;;;6.30;3.10;;;;;;;20.94;35.41;102081.22;20996887;28;20048;-64
2023/01/24 16:41:13;;;;;;;4.10;2.90;;;;;;;20.97;35.35;102072.34;20995934;28;20036;-64
2023/01/24 16:51:16;;;;;;;5.50;2.80;;;;;;;20.96;35.31;102068.72;20995807;28;20032;-64
2023/01/24 17:01:17;;;;;;;4.03;2.63;;;;;;;20.96;35.21;102065.09;20995101;28;20036;-64
2023/01/24 17:11:22;;;;;;;4.63;2.90;;;;;;;20.95;35.28;102055.91;20994028;28;20044;-64
2023/01/24 17:21:26;;;;;;;3.47;2.42;;;;;;;20.92;35.13;102045.28;20994109;28;20041;-64
2023/01/24 17:31:31;;;;;;;3.88;2.72;;;;;;;20.95;35.39;102041.16;20993812;28;20487;-64
2023/01/24 17:41:33;;;;;;;4.68;2.70;;;;;;;20.93;35.25;102024.72;20993275;28;20040;-65
2023/01/24 17:51:37;;;;;;;4.10;2.67;;;;;;;20.89;34.85;102026.34;20992586;28;20052;-64
2023/01/24 18:01:39;;;;;;;3.92;2.63;;;;;;;20.92;35.11;102027.75;20992965;28;20025;-65
2023/01/24 18:11:40;;;;;;;2.92;2.38;;;;;;;20.92;34.71;102024.97;20992379;28;20098;-64
2023/01/24 18:21:44;;;;;;;4.95;2.65;;;;;;;20.90;35.17;102035.53;21002897;28;20033;-64
2023/01/24 18:31:45;;;;;;;3.00;2.28;;;;;;;20.89;35.47;102039.38;21006050;28;20392;-64
2023/01/24 18:41:47;;;;;;;3.20;2.90;;;;;;;20.83;35.44;102029.28;21002500;28;20049;-64
2023/01/24 18:51:49;;;;;;;2.88;2.58;;;;;;;20.92;35.19;102061.16;21005344;28;20429;-63
2023/01/24 19:01:54;;;;;;;2.67;2.20;;;;;;;20.93;35.20;102046.13;21005093;28;20438;-63
2023/01/24 19:11:58;;;;;;;2.25;1.80;;;;;;;20.94;34.87;102039.50;21003665;28;20487;-63
2023/01/24 19:22:03;;;;;;;2.63;1.75;;;;;;;21.00;34.79;102032.91;21003008;28;20043;-63
2023/01/24 19:32:07;;;;;;;2.35;2.15;;;;;;;21.04;34.66;102042.44;20999009;28;20045;-63
2023/01/24 19:42:09;;;;;;;2.45;2.20;;;;;;;21.05;34.85;102030.19;21000134;28;20086;-63
2023/01/24 19:52:10;;;;;;;2.15;1.75;;;;;;;21.10;34.72;102046.13;21000609;28;20102;-63
2023/01/24 20:02:11;;;;;;;1.58;1.48;;;;;;;21.10;34.48;102051.69;20999668;28;20472;-63
2023/01/24 20:12:13;;;;;;;2.22;1.60;;;;;;;21.13;34.80;102079.84;21017396;28;20044;-63
2023/01/24 20:22:17;;;;;;;2.08;1.88;;;;;;;21.13;34.88;102085.44;21003601;28;20109;-63
2023/01/24 20:32:18;;;;;;;2.53;1.92;;;;;;;21.15;34.55;102099.06;21053933;28;20040;-63
2023/01/24 20:42:20;;;;;;;27.88;3.70;;;;;;;21.16;35.13;102109.09;21010152;28;20049;-64
2023/01/24 20:52:21;;;;;;;20.70;3.33;;;;;;;21.20;35.59;102113.06;21036695;28;20147;-64
2023/01/24 21:02:22;;;;;;;13.90;3.08;;;;;;;21.24;35.63;102117.88;21026426;28;20074;-65
2023/01/24 21:12:24;;;;;;;12.68;2.67;;;;;;;21.27;35.18;102141.59;21010066;28;20043;-64
2023/01/24 21:22:25;;;;;;;7.05;2.33;;;;;;;21.29;35.44;102172.78;20999468;28;20484;-64
2023/01/24 21:32:29;;;;;;;4.25;1.98;;;;;;;21.26;34.90;102168.59;21025442;28;20048;-64
2023/01/24 21:42:31;;;;;;;6.05;1.63;;;;;;;21.31;34.99;102132.50;21011390;28;20048;-64
2023/01/24 21:52:32;;;;;;;4.50;1.85;;;;;;;21.33;35.31;102156.47;21016844;28;20043;-64
2023/01/24 22:02:34;;;;;;;11.43;2.80;;;;;;;21.15;35.17;102122.19;21038509;28;20049;-64
2023/01/24 22:12:35;;;;;;;6.50;2.40;;;;;;;21.36;34.70;102164.31;21012583;28;20048;-64
2023/01/24 22:23:21;;;;;;;11.20;2.45;;;;;;;21.32;35.43;102172.31;21006809;28;20036;-65
2023/01/24 22:33:23;;;;;;;8.70;2.38;;;;;;;21.35;35.00;102201.59;21003124;28;20090;-64
2023/01/24 22:43:25;;;;;;;4.70;2.10;;;;;;;21.33;35.21;102234.41;21005407;28;20052;-65
2023/01/24 22:53:26;;;;;;;3.03;2.03;;;;;;;21.31;35.26;102260.56;21004619;28;20082;-64
2023/01/24 23:03:30;;;;;;;3.55;2.20;;;;;;;21.15;34.53;102255.78;21002578;28;20560;-65
2023/01/24 23:23:51;;;;;;;9.55;2.63;;;;;;;21.21;36.01;102320.75;21082190;28;20036;-62
2023/01/24 23:33:52;;;;;;;5.10;2.20;;;;;;;21.27;36.36;102342.03;21000447;28;20056;-62
2023/01/24 23:43:54;;;;;;;14.82;2.25;;;;;;;21.26;36.27;102343.97;20998828;28;20456;-63
2023/01/24 23:53:55;;;;;;;5.03;2.38;;;;;;;21.25;36.15;102344.22;21031806;28;20040;-62
